sensor_id;sensor_type;location;lat;lon;timestamp;temperature;humidity
28677;DHT22;15858;48.338;11.078;2023-11-22T00:01:10;7.10;99.90
28677;DHT22;15858;48.338;11.078;2023-11-22T00:03:37;7.10;99.90
28677;DHT22;15858;48.338;11.078;2023-11-22T00:06:04;7.10;99.90
28677;DHT22;15858;48.338;11.078;2023-11-22T00:08:31;7.10;99.90
28677;DHT22;15858;48.338;11.078;2023-11-22T00:10:57;7.00;99.90
28677;DHT22;15858;48.338;11.078;2023-11-22T00:13:24;7.10;99.90
28677;DHT22;15858;48.338;11.078;2023-11-22T00:15:51;7.00;99.90
28677;DHT22;15858;48.338;11.078;2023-11-22T00:18:17;7.10;99.90
28677;DHT22;15858;48.338;11.078;2023-11-22T00:20:44;7.20;99.90
28677;DHT22;15858;48.338;11.078;2023-11-22T00:23:11;7.20;99.90
28677;DHT22;15858;48.338;11.078;2023-11-22T00:25:38;7.20;99.90
28677;DHT22;15858;48.338;11.078;2023-11-22T00:28:04;7.10;99.90
28677;DHT22;15858;48.338;11.078;2023-11-22T00:30:31;7.20;99.90
28677;DHT22;15858;48.338;11.078;2023-11-22T00:32:57;7.10;99.90
28677;DHT22;15858;48.338;11.078;2023-11-22T00:35:24;7.20;99.90
28677;DHT22;15858;48.338;11.078;2023-11-22T00:37:51;7.10;99.90
28677;DHT22;15858;48.338;11.078;2023-11-22T00:40:17;7.20;99.90
28677;DHT22;15858;48.338;11.078;2023-11-22T00:42:44;7.10;99.90
28677;DHT22;15858;48.338;11.078;2023-11-22T00:45:11;7.20;99.90
28677;DHT22;15858;48.338;11.078;2023-11-22T00:47:37;7.10;99.90
28677;DHT22;15858;48.338;11.078;2023-11-22T00:50:05;7.20;99.90
28677;DHT22;15858;48.338;11.078;2023-11-22T00:52:31;7.10;99.90
28677;DHT22;15858;48.338;11.078;2023-11-22T00:54:58;7.20;99.90
28677;DHT22;15858;48.338;11.078;2023-11-22T00:57:25;7.10;99.90
28677;DHT22;15858;48.338;11.078;2023-11-22T00:59:51;7.10;99.90
28677;DHT22;15858;48.338;11.078;2023-11-22T01:02:18;7.20;99.90
28677;DHT22;15858;48.338;11.078;2023-11-22T01:04:45;7.20;99.90
28677;DHT22;15858;48.338;11.078;2023-11-22T01:07:11;7.20;99.90
28677;DHT22;15858;48.338;11.078;2023-11-22T01:09:38;7.20;99.90
28677;DHT22;15858;48.338;11.078;2023-11-22T01:12:05;7.20;99.90
28677;DHT22;15858;48.338;11.078;2023-11-22T01:14:32;7.20;99.90
28677;DHT22;15858;48.338;11.078;2023-11-22T01:16:58;7.10;99.90
28677;DHT22;15858;48.338;11.078;2023-11-22T01:19:25;7.20;99.90
28677;DHT22;15858;48.338;11.078;2023-11-22T01:21:52;7.20;99.90
28677;DHT22;15858;48.338;11.078;2023-11-22T01:24:18;7.20;99.90
28677;DHT22;15858;48.338;11.078;2023-11-22T01:26:45;7.20;99.90
28677;DHT22;15858;48.338;11.078;2023-11-22T01:29:12;7.20;99.90
28677;DHT22;15858;48.338;11.078;2023-11-22T01:31:39;7.20;99.90
28677;DHT22;15858;48.338;11.078;2023-11-22T01:34:06;7.10;99.90
28677;DHT22;15858;48.338;11.078;2023-11-22T01:36:37;7.20;99.90
28677;DHT22;15858;48.338;11.078;2023-11-22T01:39:04;7.20;99.90
28677;DHT22;15858;48.338;11.078;2023-11-22T01:41:31;7.00;99.90
28677;DHT22;15858;48.338;11.078;2023-11-22T01:43:57;6.80;99.90
28677;DHT22;15858;48.338;11.078;2023-11-22T01:46:25;6.70;99.90
28677;DHT22;15858;48.338;11.078;2023-11-22T01:48:52;6.80;99.90
28677;DHT22;15858;48.338;11.078;2023-11-22T01:51:23;6.70;99.90
28677;DHT22;15858;48.338;11.078;2023-11-22T01:53:52;6.70;99.90
28677;DHT22;15858;48.338;11.078;2023-11-22T01:56:20;6.50;99.90
28677;DHT22;15858;48.338;11.078;2023-11-22T01:58:47;6.40;99.90
28677;DHT22;15858;48.338;11.078;2023-11-22T02:01:14;6.40;99.90
28677;DHT22;15858;48.338;11.078;2023-11-22T02:03:41;6.40;99.90
28677;DHT22;15858;48.338;11.078;2023-11-22T02:06:09;6.40;99.90
28677;DHT22;15858;48.338;11.078;2023-11-22T02:08:35;6.20;99.90
28677;DHT22;15858;48.338;11.078;2023-11-22T02:11:02;6.30;99.90
28677;DHT22;15858;48.338;11.078;2023-11-22T02:13:30;6.10;99.90
28677;DHT22;15858;48.338;11.078;2023-11-22T02:15:57;5.90;99.90
28677;DHT22;15858;48.338;11.078;2023-11-22T02:18:25;5.90;99.90
28677;DHT22;15858;48.338;11.078;2023-11-22T02:20:52;5.80;99.90
28677;DHT22;15858;48.338;11.078;2023-11-22T02:23:19;5.80;99.90
28677;DHT22;15858;48.338;11.078;2023-11-22T02:25:46;5.80;99.90
28677;DHT22;15858;48.338;11.078;2023-11-22T02:28:13;5.80;99.90
28677;DHT22;15858;48.338;11.078;2023-11-22T02:30:40;5.80;99.90
28677;DHT22;15858;48.338;11.078;2023-11-22T02:33:06;5.50;99.90
28677;DHT22;15858;48.338;11.078;2023-11-22T02:35:33;5.50;99.90
28677;DHT22;15858;48.338;11.078;2023-11-22T02:38:00;5.50;99.90
28677;DHT22;15858;48.338;11.078;2023-11-22T02:40:27;5.50;99.90
28677;DHT22;15858;48.338;11.078;2023-11-22T02:42:54;5.50;99.90
28677;DHT22;15858;48.338;11.078;2023-11-22T02:45:27;5.50;99.90
28677;DHT22;15858;48.338;11.078;2023-11-22T02:47:54;5.60;99.90
28677;DHT22;15858;48.338;11.078;2023-11-22T02:50:21;5.50;99.90
28677;DHT22;15858;48.338;11.078;2023-11-22T02:52:48;5.60;99.90
28677;DHT22;15858;48.338;11.078;2023-11-22T02:55:15;5.40;99.90
28677;DHT22;15858;48.338;11.078;2023-11-22T02:57:42;5.50;99.90
28677;DHT22;15858;48.338;11.078;2023-11-22T03:00:09;5.50;99.90
28677;DHT22;15858;48.338;11.078;2023-11-22T03:02:36;5.50;99.90
28677;DHT22;15858;48.338;11.078;2023-11-22T03:05:03;5.50;99.90
28677;DHT22;15858;48.338;11.078;2023-11-22T03:07:30;5.50;99.90
28677;DHT22;15858;48.338;11.078;2023-11-22T03:09:56;5.60;99.90
28677;DHT22;15858;48.338;11.078;2023-11-22T03:12:23;5.50;99.90
28677;DHT22;15858;48.338;11.078;2023-11-22T03:14:50;5.50;99.90
28677;DHT22;15858;48.338;11.078;2023-11-22T03:17:16;5.40;99.90
28677;DHT22;15858;48.338;11.078;2023-11-22T03:19:43;5.50;99.90
28677;DHT22;15858;48.338;11.078;2023-11-22T03:22:10;5.50;99.90
28677;DHT22;15858;48.338;11.078;2023-11-22T03:24:37;5.40;99.90
28677;DHT22;15858;48.338;11.078;2023-11-22T03:27:03;5.40;99.90
28677;DHT22;15858;48.338;11.078;2023-11-22T03:29:30;5.10;99.90
28677;DHT22;15858;48.338;11.078;2023-11-22T03:31:57;5.10;99.90
28677;DHT22;15858;48.338;11.078;2023-11-22T03:34:24;5.20;99.90
28677;DHT22;15858;48.338;11.078;2023-11-22T03:36:50;5.10;99.90
28677;DHT22;15858;48.338;11.078;2023-11-22T03:39:17;5.00;99.90
28677;DHT22;15858;48.338;11.078;2023-11-22T03:41:43;4.90;99.90
28677;DHT22;15858;48.338;11.078;2023-11-22T03:44:10;4.90;99.90
28677;DHT22;15858;48.338;11.078;2023-11-22T03:46:37;4.80;99.90
28677;DHT22;15858;48.338;11.078;2023-11-22T03:49:05;4.90;99.90
28677;DHT22;15858;48.338;11.078;2023-11-22T03:51:32;4.90;99.90
28677;DHT22;15858;48.338;11.078;2023-11-22T03:53:59;4.80;99.90
28677;DHT22;15858;48.338;11.078;2023-11-22T03:56:26;4.90;99.90
28677;DHT22;15858;48.338;11.078;2023-11-22T03:58:54;4.70;99.90
28677;DHT22;15858;48.338;11.078;2023-11-22T04:01:21;4.70;99.90
28677;DHT22;15858;48.338;11.078;2023-11-22T04:03:48;4.70;99.90
28677;DHT22;15858;48.338;11.078;2023-11-22T04:06:16;4.70;99.90
28677;DHT22;15858;48.338;11.078;2023-11-22T04:08:43;4.80;99.90
28677;DHT22;15858;48.338;11.078;2023-11-22T04:11:10;4.80;99.90
28677;DHT22;15858;48.338;11.078;2023-11-22T04:13:37;4.70;99.90
28677;DHT22;15858;48.338;11.078;2023-11-22T04:16:04;4.70;99.90
28677;DHT22;15858;48.338;11.078;2023-11-22T04:18:31;4.80;99.90
28677;DHT22;15858;48.338;11.078;2023-11-22T04:20:58;4.60;99.90
28677;DHT22;15858;48.338;11.078;2023-11-22T04:23:25;4.70;99.90
28677;DHT22;15858;48.338;11.078;2023-11-22T04:25:52;4.60;99.90
28677;DHT22;15858;48.338;11.078;2023-11-22T04:28:18;4.50;99.90
28677;DHT22;15858;48.338;11.078;2023-11-22T04:30:45;4.60;99.90
28677;DHT22;15858;48.338;11.078;2023-11-22T04:33:11;4.70;99.90
28677;DHT22;15858;48.338;11.078;2023-11-22T04:35:38;4.60;99.90
28677;DHT22;15858;48.338;11.078;2023-11-22T04:38:05;4.50;99.90
28677;DHT22;15858;48.338;11.078;2023-11-22T04:40:32;4.60;99.90
28677;DHT22;15858;48.338;11.078;2023-11-22T04:42:58;4.60;99.90
28677;DHT22;15858;48.338;11.078;2023-11-22T04:45:25;4.60;99.90
28677;DHT22;15858;48.338;11.078;2023-11-22T04:47:55;4.60;99.90
28677;DHT22;15858;48.338;11.078;2023-11-22T04:50:22;4.70;99.90
28677;DHT22;15858;48.338;11.078;2023-11-22T04:52:49;4.70;99.90
28677;DHT22;15858;48.338;11.078;2023-11-22T04:55:16;4.60;99.90
28677;DHT22;15858;48.338;11.078;2023-11-22T04:57:43;4.70;99.90
28677;DHT22;15858;48.338;11.078;2023-11-22T05:00:10;4.60;99.90
28677;DHT22;15858;48.338;11.078;2023-11-22T05:02:38;4.60;99.90
28677;DHT22;15858;48.338;11.078;2023-11-22T05:05:05;4.70;99.90
28677;DHT22;15858;48.338;11.078;2023-11-22T05:07:32;4.60;99.90
28677;DHT22;15858;48.338;11.078;2023-11-22T05:09:59;4.70;99.90
28677;DHT22;15858;48.338;11.078;2023-11-22T05:12:25;4.60;99.90
28677;DHT22;15858;48.338;11.078;2023-11-22T05:14:52;4.60;99.90
28677;DHT22;15858;48.338;11.078;2023-11-22T05:17:19;4.60;99.90
28677;DHT22;15858;48.338;11.078;2023-11-22T05:19:45;4.60;99.90
28677;DHT22;15858;48.338;11.078;2023-11-22T05:22:12;4.60;99.90
28677;DHT22;15858;48.338;11.078;2023-11-22T05:24:38;4.60;99.90
28677;DHT22;15858;48.338;11.078;2023-11-22T05:27:05;4.60;99.90
28677;DHT22;15858;48.338;11.078;2023-11-22T05:29:32;4.60;99.90
28677;DHT22;15858;48.338;11.078;2023-11-22T05:32:08;4.70;99.90
28677;DHT22;15858;48.338;11.078;2023-11-22T05:34:35;4.70;99.90
28677;DHT22;15858;48.338;11.078;2023-11-22T05:37:02;4.60;99.90
28677;DHT22;15858;48.338;11.078;2023-11-22T05:39:28;4.60;99.90
28677;DHT22;15858;48.338;11.078;2023-11-22T05:41:55;4.60;99.90
28677;DHT22;15858;48.338;11.078;2023-11-22T05:44:22;4.60;99.90
28677;DHT22;15858;48.338;11.078;2023-11-22T05:46:48;4.50;99.90
28677;DHT22;15858;48.338;11.078;2023-11-22T05:49:15;4.50;99.90
28677;DHT22;15858;48.338;11.078;2023-11-22T05:51:42;4.50;99.90
28677;DHT22;15858;48.338;11.078;2023-11-22T05:54:09;4.50;99.90
28677;DHT22;15858;48.338;11.078;2023-11-22T05:56:36;4.30;99.90
28677;DHT22;15858;48.338;11.078;2023-11-22T05:59:02;4.30;99.90
28677;DHT22;15858;48.338;11.078;2023-11-22T06:01:29;4.30;99.90
28677;DHT22;15858;48.338;11.078;2023-11-22T06:03:56;4.10;99.90
28677;DHT22;15858;48.338;11.078;2023-11-22T06:06:22;4.20;99.90
28677;DHT22;15858;48.338;11.078;2023-11-22T06:08:49;4.20;99.90
28677;DHT22;15858;48.338;11.078;2023-11-22T06:11:16;4.20;99.90
28677;DHT22;15858;48.338;11.078;2023-11-22T06:13:42;4.20;99.90
28677;DHT22;15858;48.338;11.078;2023-11-22T06:16:09;4.30;99.90
28677;DHT22;15858;48.338;11.078;2023-11-22T06:18:36;4.20;99.90
28677;DHT22;15858;48.338;11.078;2023-11-22T06:21:03;4.30;99.90
28677;DHT22;15858;48.338;11.078;2023-11-22T06:23:29;4.30;99.90
28677;DHT22;15858;48.338;11.078;2023-11-22T06:25:56;4.10;99.90
28677;DHT22;15858;48.338;11.078;2023-11-22T06:28:22;4.10;99.90
28677;DHT22;15858;48.338;11.078;2023-11-22T06:30:49;3.90;99.90
28677;DHT22;15858;48.338;11.078;2023-11-22T06:33:16;3.70;99.90
28677;DHT22;15858;48.338;11.078;2023-11-22T06:35:43;3.70;99.90
28677;DHT22;15858;48.338;11.078;2023-11-22T06:38:09;3.50;99.90
28677;DHT22;15858;48.338;11.078;2023-11-22T06:40:36;3.60;99.90
28677;DHT22;15858;48.338;11.078;2023-11-22T06:43:03;3.70;99.90
28677;DHT22;15858;48.338;11.078;2023-11-22T06:45:30;3.50;99.90
28677;DHT22;15858;48.338;11.078;2023-11-22T06:47:57;3.40;99.90
28677;DHT22;15858;48.338;11.078;2023-11-22T06:50:24;3.40;99.90
28677;DHT22;15858;48.338;11.078;2023-11-22T06:52:51;3.40;99.90
28677;DHT22;15858;48.338;11.078;2023-11-22T06:55:17;3.40;99.90
28677;DHT22;15858;48.338;11.078;2023-11-22T06:57:44;3.40;99.90
28677;DHT22;15858;48.338;11.078;2023-11-22T07:00:12;3.40;99.90
28677;DHT22;15858;48.338;11.078;2023-11-22T07:02:39;3.20;99.90
28677;DHT22;15858;48.338;11.078;2023-11-22T07:05:06;3.20;99.90
28677;DHT22;15858;48.338;11.078;2023-11-22T07:07:33;3.40;99.90
28677;DHT22;15858;48.338;11.078;2023-11-22T07:10:00;3.40;99.90
28677;DHT22;15858;48.338;11.078;2023-11-22T07:12:27;3.30;99.90
28677;DHT22;15858;48.338;11.078;2023-11-22T07:14:53;3.40;99.90
28677;DHT22;15858;48.338;11.078;2023-11-22T07:17:20;3.40;99.90
28677;DHT22;15858;48.338;11.078;2023-11-22T07:19:47;3.50;99.90
28677;DHT22;15858;48.338;11.078;2023-11-22T07:22:16;3.50;99.90
28677;DHT22;15858;48.338;11.078;2023-11-22T07:24:43;3.40;99.90
28677;DHT22;15858;48.338;11.078;2023-11-22T07:27:11;3.40;99.90
28677;DHT22;15858;48.338;11.078;2023-11-22T07:29:40;3.40;99.90
28677;DHT22;15858;48.338;11.078;2023-11-22T07:32:07;3.30;99.90
28677;DHT22;15858;48.338;11.078;2023-11-22T07:34:35;3.30;99.90
28677;DHT22;15858;48.338;11.078;2023-11-22T07:37:02;3.30;99.90
28677;DHT22;15858;48.338;11.078;2023-11-22T07:39:29;3.40;99.90
28677;DHT22;15858;48.338;11.078;2023-11-22T07:41:56;3.30;99.90
28677;DHT22;15858;48.338;11.078;2023-11-22T07:44:23;3.30;99.90
28677;DHT22;15858;48.338;11.078;2023-11-22T07:46:50;3.30;99.90
28677;DHT22;15858;48.338;11.078;2023-11-22T07:49:19;3.30;99.90
28677;DHT22;15858;48.338;11.078;2023-11-22T07:51:45;3.30;99.90
28677;DHT22;15858;48.338;11.078;2023-11-22T07:54:12;3.30;99.90
28677;DHT22;15858;48.338;11.078;2023-11-22T07:56:39;3.30;99.90
28677;DHT22;15858;48.338;11.078;2023-11-22T07:59:06;3.20;99.90
28677;DHT22;15858;48.338;11.078;2023-11-22T08:01:32;3.20;99.90
28677;DHT22;15858;48.338;11.078;2023-11-22T08:03:59;3.30;99.90
28677;DHT22;15858;48.338;11.078;2023-11-22T08:06:26;3.20;99.90
28677;DHT22;15858;48.338;11.078;2023-11-22T08:08:52;3.10;99.90
28677;DHT22;15858;48.338;11.078;2023-11-22T08:11:19;3.10;99.90
28677;DHT22;15858;48.338;11.078;2023-11-22T08:13:46;3.10;99.90
28677;DHT22;15858;48.338;11.078;2023-11-22T08:16:12;3.00;99.90
28677;DHT22;15858;48.338;11.078;2023-11-22T08:18:40;3.00;99.90
28677;DHT22;15858;48.338;11.078;2023-11-22T08:21:07;3.00;99.90
28677;DHT22;15858;48.338;11.078;2023-11-22T08:23:33;3.10;99.90
28677;DHT22;15858;48.338;11.078;2023-11-22T08:26:00;3.10;99.90
28677;DHT22;15858;48.338;11.078;2023-11-22T08:28:27;3.10;99.90
28677;DHT22;15858;48.338;11.078;2023-11-22T08:30:54;3.20;99.90
28677;DHT22;15858;48.338;11.078;2023-11-22T08:33:20;3.30;99.90
28677;DHT22;15858;48.338;11.078;2023-11-22T08:35:47;3.30;99.90
28677;DHT22;15858;48.338;11.078;2023-11-22T08:38:14;3.20;99.90
28677;DHT22;15858;48.338;11.078;2023-11-22T08:40:41;3.30;99.90
28677;DHT22;15858;48.338;11.078;2023-11-22T08:43:07;3.20;99.90
28677;DHT22;15858;48.338;11.078;2023-11-22T08:45:34;3.30;99.90
28677;DHT22;15858;48.338;11.078;2023-11-22T08:48:01;3.40;99.90
28677;DHT22;15858;48.338;11.078;2023-11-22T08:50:28;3.30;99.90
28677;DHT22;15858;48.338;11.078;2023-11-22T08:52:54;3.40;99.90
28677;DHT22;15858;48.338;11.078;2023-11-22T08:55:21;3.30;99.90
28677;DHT22;15858;48.338;11.078;2023-11-22T08:57:48;3.30;99.90
28677;DHT22;15858;48.338;11.078;2023-11-22T09:00:15;3.30;99.90
28677;DHT22;15858;48.338;11.078;2023-11-22T09:02:42;3.20;99.90
28677;DHT22;15858;48.338;11.078;2023-11-22T09:05:08;3.30;99.90
28677;DHT22;15858;48.338;11.078;2023-11-22T09:07:35;3.40;99.90
28677;DHT22;15858;48.338;11.078;2023-11-22T09:10:03;3.40;99.90
28677;DHT22;15858;48.338;11.078;2023-11-22T09:12:30;3.30;99.90
28677;DHT22;15858;48.338;11.078;2023-11-22T09:14:56;3.30;99.90
28677;DHT22;15858;48.338;11.078;2023-11-22T09:17:23;3.30;99.90
28677;DHT22;15858;48.338;11.078;2023-11-22T09:19:49;3.30;99.90
28677;DHT22;15858;48.338;11.078;2023-11-22T09:22:16;3.30;99.90
28677;DHT22;15858;48.338;11.078;2023-11-22T09:24:43;3.40;99.90
28677;DHT22;15858;48.338;11.078;2023-11-22T09:27:09;3.40;99.90
28677;DHT22;15858;48.338;11.078;2023-11-22T09:29:36;3.40;99.90
28677;DHT22;15858;48.338;11.078;2023-11-22T09:32:03;3.40;99.90
28677;DHT22;15858;48.338;11.078;2023-11-22T09:34:29;3.50;99.90
28677;DHT22;15858;48.338;11.078;2023-11-22T09:36:57;3.40;99.90
28677;DHT22;15858;48.338;11.078;2023-11-22T09:39:23;3.40;99.90
28677;DHT22;15858;48.338;11.078;2023-11-22T09:41:51;3.40;99.90
28677;DHT22;15858;48.338;11.078;2023-11-22T09:44:18;3.50;99.90
28677;DHT22;15858;48.338;11.078;2023-11-22T09:46:44;3.60;99.90
28677;DHT22;15858;48.338;11.078;2023-11-22T09:49:15;3.50;99.90
28677;DHT22;15858;48.338;11.078;2023-11-22T09:51:45;3.50;99.90
28677;DHT22;15858;48.338;11.078;2023-11-22T09:54:13;3.50;99.90
28677;DHT22;15858;48.338;11.078;2023-11-22T09:56:40;3.60;99.90
28677;DHT22;15858;48.338;11.078;2023-11-22T09:59:08;3.60;99.90
28677;DHT22;15858;48.338;11.078;2023-11-22T10:01:35;3.60;99.90
28677;DHT22;15858;48.338;11.078;2023-11-22T10:04:02;3.60;99.90
28677;DHT22;15858;48.338;11.078;2023-11-22T10:06:29;3.50;99.90
28677;DHT22;15858;48.338;11.078;2023-11-22T10:08:56;3.50;99.90
28677;DHT22;15858;48.338;11.078;2023-11-22T10:11:22;3.50;99.90
28677;DHT22;15858;48.338;11.078;2023-11-22T10:13:50;3.50;99.90
28677;DHT22;15858;48.338;11.078;2023-11-22T10:16:18;3.50;99.90
28677;DHT22;15858;48.338;11.078;2023-11-22T10:18:47;3.60;99.90
28677;DHT22;15858;48.338;11.078;2023-11-22T10:21:27;3.50;99.90
28677;DHT22;15858;48.338;11.078;2023-11-22T10:24:01;3.60;99.90
28677;DHT22;15858;48.338;11.078;2023-11-22T10:26:28;3.60;99.90
28677;DHT22;15858;48.338;11.078;2023-11-22T10:28:56;3.70;99.90
28677;DHT22;15858;48.338;11.078;2023-11-22T10:31:24;3.70;99.90
28677;DHT22;15858;48.338;11.078;2023-11-22T10:33:53;3.60;99.90
28677;DHT22;15858;48.338;11.078;2023-11-22T10:36:21;3.50;99.90
28677;DHT22;15858;48.338;11.078;2023-11-22T10:38:48;3.50;99.90
28677;DHT22;15858;48.338;11.078;2023-11-22T10:41:15;3.60;99.90
28677;DHT22;15858;48.338;11.078;2023-11-22T10:43:43;3.60;99.90
28677;DHT22;15858;48.338;11.078;2023-11-22T10:46:12;3.70;99.90
28677;DHT22;15858;48.338;11.078;2023-11-22T10:48:40;3.70;99.90
28677;DHT22;15858;48.338;11.078;2023-11-22T10:51:12;3.80;99.90
28677;DHT22;15858;48.338;11.078;2023-11-22T10:53:45;3.90;99.90
28677;DHT22;15858;48.338;11.078;2023-11-22T10:56:19;3.90;99.90
28677;DHT22;15858;48.338;11.078;2023-11-22T10:58:50;4.00;99.90
28677;DHT22;15858;48.338;11.078;2023-11-22T11:01:19;4.10;99.90
28677;DHT22;15858;48.338;11.078;2023-11-22T11:03:55;4.00;99.90
28677;DHT22;15858;48.338;11.078;2023-11-22T11:06:27;4.00;99.90
28677;DHT22;15858;48.338;11.078;2023-11-22T11:09:03;4.00;99.90
28677;DHT22;15858;48.338;11.078;2023-11-22T11:11:32;3.90;99.90
28677;DHT22;15858;48.338;11.078;2023-11-22T11:14:01;4.00;99.90
28677;DHT22;15858;48.338;11.078;2023-11-22T11:16:32;4.00;99.90
28677;DHT22;15858;48.338;11.078;2023-11-22T11:19:02;4.00;99.90
28677;DHT22;15858;48.338;11.078;2023-11-22T11:21:28;4.00;99.90
28677;DHT22;15858;48.338;11.078;2023-11-22T11:23:56;4.00;99.90
28677;DHT22;15858;48.338;11.078;2023-11-22T11:26:25;4.10;99.90
28677;DHT22;15858;48.338;11.078;2023-11-22T11:28:52;4.10;99.90
28677;DHT22;15858;48.338;11.078;2023-11-22T11:31:21;4.20;99.90
28677;DHT22;15858;48.338;11.078;2023-11-22T11:36:32;4.20;99.90
28677;DHT22;15858;48.338;11.078;2023-11-22T11:39:12;4.20;99.90
28677;DHT22;15858;48.338;11.078;2023-11-22T11:41:39;4.20;99.90
28677;DHT22;15858;48.338;11.078;2023-11-22T11:44:08;4.30;99.90
28677;DHT22;15858;48.338;11.078;2023-11-22T11:46:36;4.30;99.90
28677;DHT22;15858;48.338;11.078;2023-11-22T11:49:07;4.30;99.90
28677;DHT22;15858;48.338;11.078;2023-11-22T11:51:34;4.20;99.90
28677;DHT22;15858;48.338;11.078;2023-11-22T11:54:00;4.20;99.90
28677;DHT22;15858;48.338;11.078;2023-11-22T11:56:27;4.20;99.90
28677;DHT22;15858;48.338;11.078;2023-11-22T11:58:57;4.30;99.90
28677;DHT22;15858;48.338;11.078;2023-11-22T12:01:23;4.20;99.90
28677;DHT22;15858;48.338;11.078;2023-11-22T12:03:50;4.20;99.90
28677;DHT22;15858;48.338;11.078;2023-11-22T12:06:19;4.20;99.90
28677;DHT22;15858;48.338;11.078;2023-11-22T12:08:47;4.30;99.90
28677;DHT22;15858;48.338;11.078;2023-11-22T12:11:15;4.30;99.90
28677;DHT22;15858;48.338;11.078;2023-11-22T12:13:42;4.30;99.90
28677;DHT22;15858;48.338;11.078;2023-11-22T12:16:09;4.40;99.90
28677;DHT22;15858;48.338;11.078;2023-11-22T12:18:43;4.30;99.90
28677;DHT22;15858;48.338;11.078;2023-11-22T12:21:11;4.40;99.90
28677;DHT22;15858;48.338;11.078;2023-11-22T12:23:38;4.30;99.90
28677;DHT22;15858;48.338;11.078;2023-11-22T12:26:09;4.30;99.90
28677;DHT22;15858;48.338;11.078;2023-11-22T12:28:39;4.30;99.90
28677;DHT22;15858;48.338;11.078;2023-11-22T12:31:13;4.40;99.90
28677;DHT22;15858;48.338;11.078;2023-11-22T12:33:41;4.30;99.90
28677;DHT22;15858;48.338;11.078;2023-11-22T12:36:09;4.30;99.90
28677;DHT22;15858;48.338;11.078;2023-11-22T12:38:36;4.30;99.90
28677;DHT22;15858;48.338;11.078;2023-11-22T12:41:05;4.30;99.90
28677;DHT22;15858;48.338;11.078;2023-11-22T12:43:35;4.40;99.90
28677;DHT22;15858;48.338;11.078;2023-11-22T12:46:14;4.40;99.90
28677;DHT22;15858;48.338;11.078;2023-11-22T12:48:40;4.30;99.90
28677;DHT22;15858;48.338;11.078;2023-11-22T12:51:17;4.40;99.90
28677;DHT22;15858;48.338;11.078;2023-11-22T12:53:47;4.30;99.90
28677;DHT22;15858;48.338;11.078;2023-11-22T12:56:13;4.20;99.90
28677;DHT22;15858;48.338;11.078;2023-11-22T12:58:40;4.30;99.90
28677;DHT22;15858;48.338;11.078;2023-11-22T13:01:07;4.20;99.90
28677;DHT22;15858;48.338;11.078;2023-11-22T13:03:34;4.30;99.90
28677;DHT22;15858;48.338;11.078;2023-11-22T13:06:01;4.30;99.90
28677;DHT22;15858;48.338;11.078;2023-11-22T13:08:27;4.20;99.90
28677;DHT22;15858;48.338;11.078;2023-11-22T13:10:54;4.30;99.90
28677;DHT22;15858;48.338;11.078;2023-11-22T13:13:25;4.20;99.90
28677;DHT22;15858;48.338;11.078;2023-11-22T13:15:52;4.20;99.90
28677;DHT22;15858;48.338;11.078;2023-11-22T13:18:19;4.10;99.90
28677;DHT22;15858;48.338;11.078;2023-11-22T13:20:46;4.20;99.90
28677;DHT22;15858;48.338;11.078;2023-11-22T13:23:12;4.20;99.90
28677;DHT22;15858;48.338;11.078;2023-11-22T13:25:39;4.20;99.90
28677;DHT22;15858;48.338;11.078;2023-11-22T13:28:06;4.20;99.90
28677;DHT22;15858;48.338;11.078;2023-11-22T13:30:33;4.20;99.90
28677;DHT22;15858;48.338;11.078;2023-11-22T13:33:00;4.20;99.90
28677;DHT22;15858;48.338;11.078;2023-11-22T13:35:28;4.20;99.90
28677;DHT22;15858;48.338;11.078;2023-11-22T13:37:57;4.10;99.90
28677;DHT22;15858;48.338;11.078;2023-11-22T13:40:24;4.10;99.90
28677;DHT22;15858;48.338;11.078;2023-11-22T13:42:51;4.10;99.90
28677;DHT22;15858;48.338;11.078;2023-11-22T13:45:19;4.10;99.90
28677;DHT22;15858;48.338;11.078;2023-11-22T13:47:47;4.10;99.90
28677;DHT22;15858;48.338;11.078;2023-11-22T13:50:14;4.10;99.90
28677;DHT22;15858;48.338;11.078;2023-11-22T13:52:41;4.10;99.90
28677;DHT22;15858;48.338;11.078;2023-11-22T13:55:08;4.00;99.90
28677;DHT22;15858;48.338;11.078;2023-11-22T13:57:35;4.00;99.90
28677;DHT22;15858;48.338;11.078;2023-11-22T14:00:03;4.00;99.90
28677;DHT22;15858;48.338;11.078;2023-11-22T14:02:30;3.90;99.90
28677;DHT22;15858;48.338;11.078;2023-11-22T14:04:57;3.90;99.90
28677;DHT22;15858;48.338;11.078;2023-11-22T14:07:23;3.90;99.90
28677;DHT22;15858;48.338;11.078;2023-11-22T14:09:50;3.70;99.90
28677;DHT22;15858;48.338;11.078;2023-11-22T14:12:17;3.80;99.90
28677;DHT22;15858;48.338;11.078;2023-11-22T14:14:43;3.70;99.90
28677;DHT22;15858;48.338;11.078;2023-11-22T14:17:10;3.80;99.90
28677;DHT22;15858;48.338;11.078;2023-11-22T14:19:37;3.80;99.90
28677;DHT22;15858;48.338;11.078;2023-11-22T14:22:11;3.80;99.90
28677;DHT22;15858;48.338;11.078;2023-11-22T14:24:37;3.70;99.90
28677;DHT22;15858;48.338;11.078;2023-11-22T14:27:04;3.70;99.90
28677;DHT22;15858;48.338;11.078;2023-11-22T14:29:30;3.80;99.90
28677;DHT22;15858;48.338;11.078;2023-11-22T14:31:57;3.80;99.90
28677;DHT22;15858;48.338;11.078;2023-11-22T14:34:24;3.80;99.90
28677;DHT22;15858;48.338;11.078;2023-11-22T14:36:50;3.90;99.90
28677;DHT22;15858;48.338;11.078;2023-11-22T14:39:17;4.00;99.90
28677;DHT22;15858;48.338;11.078;2023-11-22T14:41:44;3.90;99.90
28677;DHT22;15858;48.338;11.078;2023-11-22T14:44:10;3.90;99.90
28677;DHT22;15858;48.338;11.078;2023-11-22T14:46:37;3.90;99.90
28677;DHT22;15858;48.338;11.078;2023-11-22T14:49:04;3.90;99.90
28677;DHT22;15858;48.338;11.078;2023-11-22T14:51:30;3.80;99.90
28677;DHT22;15858;48.338;11.078;2023-11-22T14:53:57;4.00;99.90
28677;DHT22;15858;48.338;11.078;2023-11-22T14:56:24;3.90;99.90
28677;DHT22;15858;48.338;11.078;2023-11-22T14:58:50;3.90;99.90
28677;DHT22;15858;48.338;11.078;2023-11-22T15:01:18;3.80;99.90
28677;DHT22;15858;48.338;11.078;2023-11-22T15:03:44;3.80;99.90
28677;DHT22;15858;48.338;11.078;2023-11-22T15:06:11;3.90;99.90
28677;DHT22;15858;48.338;11.078;2023-11-22T15:08:38;3.70;99.90
28677;DHT22;15858;48.338;11.078;2023-11-22T15:11:04;3.80;99.90
28677;DHT22;15858;48.338;11.078;2023-11-22T15:13:31;3.80;99.90
28677;DHT22;15858;48.338;11.078;2023-11-22T15:15:57;3.80;99.90
28677;DHT22;15858;48.338;11.078;2023-11-22T15:18:24;3.70;99.90
28677;DHT22;15858;48.338;11.078;2023-11-22T15:20:51;3.70;99.90
28677;DHT22;15858;48.338;11.078;2023-11-22T15:23:18;3.80;99.90
28677;DHT22;15858;48.338;11.078;2023-11-22T15:25:44;3.70;99.90
28677;DHT22;15858;48.338;11.078;2023-11-22T15:28:11;3.80;99.90
28677;DHT22;15858;48.338;11.078;2023-11-22T15:30:38;3.80;99.90
28677;DHT22;15858;48.338;11.078;2023-11-22T15:33:04;3.80;99.90